createdAt,value
2019-01-11T00:00:29.316Z,0.30
2019-01-11T00:03:16.617Z,0.30
2019-01-11T00:06:03.959Z,0.20
2019-01-11T00:08:50.647Z,0.20
2019-01-11T00:11:37.463Z,0.30
2019-01-11T00:14:24.436Z,0.30
2019-01-11T00:17:11.839Z,0.30
2019-01-11T00:20:03.464Z,0.30
2019-01-11T00:22:47.657Z,0.20
2019-01-11T00:25:34.742Z,0.20
2019-01-11T00:28:21.559Z,0.20
2019-01-11T00:31:08.376Z,0.20
2019-01-11T00:33:55.645Z,0.10
2019-01-11T00:36:42.939Z,0.20
2019-01-11T00:39:29.986Z,0.20
2019-01-11T00:42:17.198Z,0.10
2019-01-11T00:45:07.609Z,0.10
2019-01-11T00:47:54.672Z,0.00
2019-01-11T00:50:41.380Z,0.10
2019-01-11T00:53:28.699Z,0.20
2019-01-11T00:56:15.993Z,0.10
2019-01-11T00:59:03.146Z,0.10
2019-01-11T01:01:50.129Z,0.10
2019-01-11T01:04:37.323Z,0.10
2019-01-11T01:07:24.704Z,0.10
2019-01-11T01:10:12.057Z,0.10
2019-01-11T01:12:59.004Z,0.20
2019-01-11T01:15:46.098Z,0.10
2019-01-11T01:18:32.786Z,0.20
2019-01-11T01:21:19.496Z,0.10
2019-01-11T01:24:06.459Z,0.20
2019-01-11T01:26:53.210Z,0.10
2019-01-11T01:29:40.161Z,0.10
2019-01-11T01:32:27.277Z,0.20
2019-01-11T01:35:14.470Z,0.10
2019-01-11T01:38:01.722Z,0.00
2019-01-11T01:40:49.018Z,0.00
2019-01-11T01:43:36.210Z,0.00
2019-01-11T01:46:22.888Z,0.00
2019-01-11T01:49:10.238Z,0.00
2019-01-11T01:51:57.007Z,-0.10
2019-01-11T01:54:44.050Z,-0.20
2019-01-11T01:57:31.070Z,-0.20
2019-01-11T02:00:19.907Z,-0.10
2019-01-11T02:03:07.008Z,-0.20
2019-01-11T02:05:53.764Z,-0.20
2019-01-11T02:08:40.652Z,-0.20
2019-01-11T02:11:27.474Z,-0.20
2019-01-11T02:14:14.386Z,-0.20
2019-01-11T02:17:01.750Z,-0.10
2019-01-11T02:19:48.536Z,-0.20
2019-01-11T02:22:35.809Z,-0.30
2019-01-11T02:25:22.982Z,-0.30
2019-01-11T02:28:10.348Z,-0.30
2019-01-11T02:30:57.246Z,-0.30
2019-01-11T02:33:44.512Z,-0.30
2019-01-11T02:36:31.807Z,-0.30
2019-01-11T02:39:19.236Z,-0.30
2019-01-11T02:42:06.231Z,-0.30
2019-01-11T02:44:53.233Z,-0.30
2019-01-11T02:47:39.935Z,-0.40
2019-01-11T02:50:26.759Z,-0.50
2019-01-11T02:53:14.067Z,-0.50
2019-01-11T02:56:01.100Z,-0.50
2019-01-11T02:58:48.200Z,-0.50
2019-01-11T03:01:35.401Z,-0.50
2019-01-11T03:04:22.649Z,-0.50
2019-01-11T03:07:09.830Z,-0.60
2019-01-11T03:09:56.523Z,-0.60
2019-01-11T03:12:43.909Z,-0.70
2019-01-11T03:15:31.031Z,-0.80
2019-01-11T03:18:18.341Z,-0.90
2019-01-11T03:21:05.624Z,-1.10
2019-01-11T03:23:52.965Z,-1.10
2019-01-11T03:26:39.904Z,-1.00
2019-01-11T03:29:26.938Z,-1.10
2019-01-11T03:32:13.962Z,-1.10
2019-01-11T03:35:02.862Z,-1.10
2019-01-11T03:37:50.165Z,-1.20
2019-01-11T03:40:37.418Z,-1.10
2019-01-11T03:43:24.444Z,-1.20
2019-01-11T03:46:11.854Z,-1.30
2019-01-11T03:48:58.914Z,-1.30
2019-01-11T03:51:45.888Z,-1.30
2019-01-11T03:54:32.925Z,-1.40
2019-01-11T03:57:20.253Z,-1.40
2019-01-11T04:00:13.012Z,-1.40
2019-01-11T04:03:00.308Z,-1.40
2019-01-11T04:05:47.458Z,-1.30
2019-01-11T04:08:34.522Z,-1.40
2019-01-11T04:11:21.548Z,-1.40
2019-01-11T04:14:08.851Z,-1.40
2019-01-11T04:16:56.183Z,-1.50
2019-01-11T04:19:42.891Z,-1.50
2019-01-11T04:22:29.978Z,-1.50
2019-01-11T04:25:19.135Z,-1.70
2019-01-11T04:28:06.121Z,-1.60
2019-01-11T04:30:53.477Z,-1.50
2019-01-11T04:33:40.252Z,-1.50
2019-01-11T04:36:27.172Z,-1.50
2019-01-11T04:39:14.479Z,-1.50
2019-01-11T04:42:01.809Z,-1.50
2019-01-11T04:44:48.891Z,-1.50
2019-01-11T04:47:35.901Z,-1.50
2019-01-11T04:50:23.213Z,-1.60
2019-01-11T04:53:10.675Z,-1.70
2019-01-11T04:55:57.908Z,-1.80
2019-01-11T04:58:45.203Z,-1.90
2019-01-11T05:01:32.426Z,-1.90
2019-01-11T05:04:19.096Z,-2.00
2019-01-11T05:07:05.742Z,-1.90
2019-01-11T05:09:52.967Z,-1.80
2019-01-11T05:12:39.966Z,-1.70
2019-01-11T05:15:26.937Z,-1.70
2019-01-11T05:18:14.188Z,-1.70
2019-01-11T05:21:01.422Z,-1.80
2019-01-11T05:23:48.665Z,-1.80
2019-01-11T05:26:35.793Z,-1.90
2019-01-11T05:29:23.084Z,-1.90
2019-01-11T05:32:09.842Z,-1.90
2019-01-11T05:34:57.037Z,-2.00
2019-01-11T05:37:44.347Z,-1.90
2019-01-11T05:40:31.353Z,-2.00
2019-01-11T05:43:18.697Z,-2.00
2019-01-11T05:46:05.650Z,-2.00
2019-01-11T05:48:52.684Z,-1.90
2019-01-11T05:51:39.608Z,-1.90
2019-01-11T05:54:26.545Z,-1.80
2019-01-11T05:57:13.928Z,-1.80
2019-01-11T06:00:01.019Z,-2.00
2019-01-11T06:02:48.283Z,-1.90
2019-01-11T06:05:35.569Z,-1.80
2019-01-11T06:08:22.835Z,-1.80
2019-01-11T06:11:10.040Z,-1.80
2019-01-11T06:13:57.041Z,-1.80
2019-01-11T06:16:44.100Z,-1.90
2019-01-11T06:19:30.734Z,-1.80
2019-01-11T06:22:18.604Z,-1.80
2019-01-11T06:25:06.702Z,-1.80
2019-01-11T06:27:53.662Z,-1.80
2019-01-11T06:30:40.908Z,-1.90
2019-01-11T06:33:27.912Z,-1.90
2019-01-11T06:36:15.086Z,-1.90
2019-01-11T06:39:02.111Z,-1.90
2019-01-11T06:41:50.942Z,-1.90
2019-01-11T06:44:39.094Z,-1.80
2019-01-11T06:47:26.584Z,-2.00
2019-01-11T06:50:15.719Z,-1.90
2019-01-11T06:53:02.952Z,-2.00
2019-01-11T06:55:50.309Z,-1.90
2019-01-11T06:58:37.599Z,-1.90
2019-01-11T07:01:24.510Z,-2.20
2019-01-11T07:04:11.996Z,-2.00
2019-01-11T07:06:58.913Z,-2.10
2019-01-11T07:09:46.369Z,-1.90
2019-01-11T07:12:33.404Z,-1.90
2019-01-11T07:15:20.914Z,-1.90
2019-01-11T07:18:08.085Z,-1.90
2019-01-11T07:20:55.279Z,-1.80
2019-01-11T07:23:42.612Z,-1.80
2019-01-11T07:26:29.584Z,-1.70
2019-01-11T07:29:16.846Z,-1.70
2019-01-11T07:32:04.395Z,-1.80
2019-01-11T07:34:51.791Z,-1.80
2019-01-11T07:37:39.014Z,-1.70
2019-01-11T07:40:26.199Z,-1.70
2019-01-11T07:43:13.586Z,-1.70
2019-01-11T07:46:00.654Z,-1.90
2019-01-11T07:48:47.880Z,-1.90
2019-01-11T07:51:34.984Z,-1.80
2019-01-11T07:54:22.473Z,-1.90
2019-01-11T07:57:09.653Z,-1.90
2019-01-11T07:59:56.890Z,-1.90
2019-01-11T08:02:44.345Z,-2.00
2019-01-11T08:05:31.265Z,-1.80
2019-01-11T08:08:18.420Z,-1.60
2019-01-11T08:11:05.797Z,-1.50
2019-01-11T08:13:52.884Z,-1.60
2019-01-11T08:16:39.877Z,-1.30
2019-01-11T08:19:27.066Z,-1.40
2019-01-11T08:22:15.645Z,-1.30
2019-01-11T08:25:04.442Z,-1.10
2019-01-11T08:27:51.516Z,-1.10
2019-01-11T08:30:38.647Z,-1.20
2019-01-11T08:33:26.181Z,-0.90
2019-01-11T08:36:13.276Z,-1.10
2019-01-11T08:39:00.286Z,-1.10
2019-01-11T08:41:47.330Z,-1.10
2019-01-11T08:44:34.667Z,-1.10
2019-01-11T08:47:22.128Z,-1.10
2019-01-11T08:50:22.291Z,-1.00
2019-01-11T08:53:09.304Z,-1.20
2019-01-11T08:55:56.391Z,-0.80
2019-01-11T08:58:44.446Z,-0.60
2019-01-11T09:01:31.732Z,-0.40
2019-01-11T09:04:18.947Z,-0.20
2019-01-11T09:07:06.300Z,-0.20
2019-01-11T09:09:53.594Z,0.00
2019-01-11T09:12:40.334Z,0.20
2019-01-11T09:15:27.147Z,0.10
2019-01-11T09:18:14.398Z,0.30
2019-01-11T09:21:01.410Z,-0.10
2019-01-11T09:23:48.597Z,0.00
2019-01-11T09:26:35.897Z,0.10
2019-01-11T09:29:23.445Z,0.20
2019-01-11T09:32:10.609Z,0.10
2019-01-11T09:34:57.612Z,0.30
2019-01-11T09:37:44.769Z,0.30
2019-01-11T09:40:31.428Z,0.10
2019-01-11T09:43:18.636Z,0.10
2019-01-11T09:46:06.200Z,-0.30
2019-01-11T09:48:52.909Z,0.00
2019-01-11T09:51:39.530Z,-0.20
2019-01-11T09:54:27.018Z,0.10
2019-01-11T09:57:14.243Z,0.10
2019-01-11T10:00:01.688Z,0.10
2019-01-11T10:02:50.507Z,0.10
2019-01-11T10:05:37.431Z,0.30
2019-01-11T10:08:24.339Z,0.50
2019-01-11T10:11:11.608Z,0.40
2019-01-11T10:13:58.818Z,0.40
2019-01-11T10:16:45.858Z,0.50
2019-01-11T10:19:32.856Z,0.30
2019-01-11T10:22:20.436Z,0.30
2019-01-11T10:25:09.581Z,0.40
2019-01-11T10:27:56.444Z,0.40
2019-01-11T10:30:43.484Z,0.60
2019-01-11T10:33:36.153Z,0.70
2019-01-11T10:36:19.384Z,0.70
2019-01-11T10:39:07.724Z,0.60
2019-01-11T10:41:54.933Z,0.60
2019-01-11T10:44:42.432Z,0.50
2019-01-11T10:47:29.960Z,0.40
2019-01-11T10:50:17.756Z,0.50
2019-01-11T10:53:04.827Z,0.20
2019-01-11T10:55:52.114Z,0.30
2019-01-11T10:58:39.477Z,0.10
2019-01-11T11:01:26.718Z,0.50
2019-01-11T11:04:13.810Z,0.20
2019-01-11T11:07:00.959Z,0.20
2019-01-11T11:09:48.305Z,0.30
2019-01-11T11:12:35.370Z,0.50
2019-01-11T11:15:23.482Z,0.70
2019-01-11T11:18:10.600Z,0.70
2019-01-11T11:20:57.892Z,0.70
2019-01-11T11:23:45.044Z,0.60
2019-01-11T11:26:31.985Z,0.60
2019-01-11T11:29:18.860Z,0.70
2019-01-11T11:32:06.153Z,0.20
2019-01-11T11:34:53.412Z,0.40
2019-01-11T11:37:40.412Z,0.30
2019-01-11T11:40:27.660Z,0.70
2019-01-11T11:43:16.484Z,0.70
2019-01-11T11:46:03.475Z,0.70
2019-01-11T11:48:50.460Z,0.90
2019-01-11T11:51:41.289Z,0.70
2019-01-11T11:54:25.885Z,0.60
2019-01-11T11:57:13.081Z,0.60
2019-01-11T12:00:00.145Z,0.50
2019-01-11T12:02:47.124Z,0.60
2019-01-11T12:05:34.150Z,0.60
2019-01-11T12:08:21.107Z,0.60
2019-01-11T12:11:08.156Z,0.40
2019-01-11T12:13:55.385Z,0.50
2019-01-11T12:16:42.680Z,0.50
2019-01-11T12:19:29.614Z,0.50
2019-01-11T12:22:16.790Z,0.60
2019-01-11T12:25:04.817Z,0.50
2019-01-11T12:27:52.049Z,0.60
2019-01-11T12:30:39.189Z,0.80
2019-01-11T12:33:26.371Z,0.50
2019-01-11T12:36:13.425Z,0.50
2019-01-11T12:39:00.452Z,0.80
2019-01-11T12:41:47.108Z,0.90
2019-01-11T12:44:34.310Z,0.80
2019-01-11T12:47:21.322Z,0.80
2019-01-11T12:50:14.216Z,0.50
2019-01-11T12:53:01.242Z,0.60
2019-01-11T12:55:48.566Z,0.70
2019-01-11T12:58:35.309Z,0.70
2019-01-11T13:01:22.518Z,0.80
2019-01-11T13:04:09.744Z,0.80
2019-01-11T13:06:57.011Z,0.60
2019-01-11T13:09:44.396Z,0.40
2019-01-11T13:12:31.388Z,0.20
2019-01-11T13:15:19.734Z,0.50
2019-01-11T13:18:06.808Z,0.30
2019-01-11T13:20:54.017Z,0.20
2019-01-11T13:23:41.385Z,0.00
2019-01-11T13:26:28.644Z,0.10
2019-01-11T13:29:15.469Z,0.10
2019-01-11T13:32:02.229Z,0.20
2019-01-11T13:34:49.410Z,0.20
2019-01-11T13:37:36.563Z,0.00
2019-01-11T13:40:23.928Z,0.40
2019-01-11T13:43:10.967Z,0.20
2019-01-11T13:45:58.073Z,0.20
2019-01-11T13:48:45.422Z,0.20
2019-01-11T13:51:32.747Z,0.00
2019-01-11T13:54:19.522Z,0.20
2019-01-11T13:57:06.658Z,0.30
2019-01-11T13:59:53.969Z,0.40
2019-01-11T14:02:40.998Z,0.40
2019-01-11T14:05:28.256Z,0.30
2019-01-11T14:08:15.535Z,0.20
2019-01-11T14:11:02.605Z,-0.10
2019-01-11T14:13:49.765Z,-0.10
2019-01-11T14:16:36.674Z,-0.10
2019-01-11T14:19:23.681Z,-0.10
2019-01-11T14:22:13.894Z,0.00
2019-01-11T14:24:59.224Z,0.00
2019-01-11T14:27:46.545Z,-0.10
2019-01-11T14:30:33.855Z,-0.10
2019-01-11T14:33:21.547Z,0.00
2019-01-11T14:36:08.649Z,-0.10
2019-01-11T14:38:55.624Z,0.20
2019-01-11T14:41:42.880Z,0.10
2019-01-11T14:44:29.923Z,-0.50
2019-01-11T14:47:16.929Z,-0.20
2019-01-11T14:50:07.232Z,0.00
2019-01-11T14:52:54.240Z,-0.10
2019-01-11T14:55:41.176Z,-0.40
2019-01-11T14:58:28.822Z,-0.40
2019-01-11T15:01:16.059Z,-0.40
2019-01-11T15:04:03.201Z,-0.10
2019-01-11T15:06:50.040Z,-0.30
2019-01-11T15:09:36.898Z,-0.20
2019-01-11T15:12:23.884Z,-0.20
2019-01-11T15:15:10.918Z,-0.30
2019-01-11T15:17:58.212Z,-0.20
2019-01-11T15:20:45.182Z,-0.10
2019-01-11T15:23:32.286Z,-0.10
2019-01-11T15:26:19.337Z,-0.10
2019-01-11T15:29:06.372Z,-0.20
2019-01-11T15:31:53.109Z,-0.30
2019-01-11T15:34:41.090Z,-0.20
2019-01-11T15:37:28.341Z,0.00
2019-01-11T15:40:18.870Z,-0.20
2019-01-11T15:43:06.141Z,-0.10
2019-01-11T15:45:57.897Z,0.00
2019-01-11T15:48:46.827Z,0.10
2019-01-11T15:51:34.153Z,0.00
2019-01-11T15:54:21.176Z,-0.10
2019-01-11T15:57:08.177Z,-0.20
2019-01-11T16:00:01.110Z,-0.20
2019-01-11T16:02:48.596Z,-0.40
2019-01-11T16:05:35.772Z,-0.30
2019-01-11T16:08:22.865Z,-0.40
2019-01-11T16:11:12.676Z,-0.30
2019-01-11T16:14:14.677Z,-0.20
2019-01-11T16:17:05.025Z,-0.30
2019-01-11T16:19:52.171Z,-0.40
2019-01-11T16:22:39.743Z,-0.20
2019-01-11T16:25:26.501Z,-0.10
2019-01-11T16:28:13.611Z,-0.10
2019-01-11T16:31:00.728Z,-0.10
2019-01-11T16:33:48.011Z,-0.20
2019-01-11T16:36:34.934Z,-0.20
2019-01-11T16:39:22.142Z,-0.10
2019-01-11T16:42:09.438Z,-0.40
2019-01-11T16:44:56.729Z,-0.30
2019-01-11T16:47:44.150Z,-0.30
2019-01-11T16:50:31.129Z,-0.40
2019-01-11T16:53:18.263Z,-0.20
2019-01-11T16:56:05.569Z,-0.20
2019-01-11T16:58:52.882Z,-0.20
2019-01-11T17:01:40.111Z,-0.40
2019-01-11T17:04:27.146Z,-0.30
2019-01-11T17:07:14.501Z,-0.30
2019-01-11T17:10:02.341Z,-0.30
2019-01-11T17:12:49.710Z,-0.30
2019-01-11T17:15:36.793Z,-0.20
2019-01-11T17:18:24.190Z,-0.20
2019-01-11T17:21:11.250Z,-0.20
2019-01-11T17:23:58.490Z,-0.40
2019-01-11T17:26:45.636Z,-0.30
2019-01-11T17:29:32.781Z,-0.30
2019-01-11T17:32:20.046Z,-0.20
2019-01-11T17:35:07.428Z,-0.20
2019-01-11T17:37:54.145Z,-0.20
2019-01-11T17:40:41.357Z,-0.20
2019-01-11T17:43:28.416Z,-0.30
2019-01-11T17:46:15.368Z,-0.20
2019-01-11T17:49:02.271Z,-0.20
2019-01-11T17:51:49.282Z,-0.50
2019-01-11T17:54:35.935Z,-0.50
2019-01-11T17:57:22.922Z,-0.40
2019-01-11T18:00:12.953Z,-0.50
2019-01-11T18:02:59.696Z,-0.40
2019-01-11T18:05:46.968Z,-0.50
2019-01-11T18:08:34.166Z,-0.50
2019-01-11T18:11:20.904Z,-0.60
2019-01-11T18:14:08.209Z,-0.50
2019-01-11T18:16:55.460Z,-0.60
2019-01-11T18:19:42.597Z,-0.60
2019-01-11T18:22:29.606Z,-0.50
2019-01-11T18:25:17.030Z,-0.50
2019-01-11T18:28:04.560Z,-0.50
2019-01-11T18:30:51.829Z,-0.60
2019-01-11T18:33:39.028Z,-0.50
2019-01-11T18:36:26.241Z,-0.30
2019-01-11T18:39:13.416Z,-0.20
2019-01-11T18:42:00.898Z,-0.40
2019-01-11T18:44:47.578Z,-0.40
2019-01-11T18:47:34.793Z,-0.40
2019-01-11T18:50:23.544Z,-0.50
2019-01-11T18:53:13.858Z,-0.30
2019-01-11T18:56:05.180Z,-0.40
2019-01-11T18:58:47.990Z,-0.20
2019-01-11T19:01:35.309Z,-0.20
2019-01-11T19:04:22.599Z,-0.20
2019-01-11T19:07:09.760Z,-0.10
2019-01-11T19:09:56.839Z,-0.20
2019-01-11T19:12:44.464Z,-0.20
2019-01-11T19:15:31.441Z,-0.20
2019-01-11T19:18:18.622Z,-0.30
2019-01-11T19:21:05.797Z,-0.40
2019-01-11T19:23:52.765Z,-0.20
2019-01-11T19:26:40.056Z,-0.30
2019-01-11T19:29:26.834Z,-0.40
2019-01-11T19:32:14.047Z,-0.40
2019-01-11T19:35:00.740Z,-0.20
2019-01-11T19:37:47.922Z,-0.20
2019-01-11T19:40:34.907Z,-0.20
2019-01-11T19:43:24.558Z,-0.40
2019-01-11T19:46:12.008Z,-0.30
2019-01-11T19:48:59.113Z,-0.20
2019-01-11T19:51:46.162Z,-0.20
2019-01-11T19:54:32.931Z,-0.20
2019-01-11T19:57:19.647Z,-0.10
2019-01-11T20:00:15.889Z,-0.10
2019-01-11T20:03:02.896Z,-0.10
2019-01-11T20:05:49.885Z,-0.10
2019-01-11T20:08:36.970Z,-0.10
2019-01-11T20:11:23.766Z,-0.20
2019-01-11T20:14:11.120Z,-0.20
2019-01-11T20:16:58.335Z,-0.30
2019-01-11T20:19:45.719Z,-0.20
2019-01-11T20:22:32.916Z,-0.20
2019-01-11T20:25:22.439Z,-0.10
2019-01-11T20:28:09.602Z,-0.20
2019-01-11T20:30:56.758Z,-0.20
2019-01-11T20:33:43.936Z,-0.10
2019-01-11T20:36:33.215Z,-0.20
2019-01-11T20:39:20.212Z,-0.10
2019-01-11T20:42:07.570Z,-0.20
2019-01-11T20:44:54.352Z,-0.10
2019-01-11T20:47:41.695Z,0.10
2019-01-11T20:50:28.961Z,0.10
2019-01-11T20:53:16.128Z,0.00
2019-01-11T20:56:03.559Z,0.00
2019-01-11T20:58:50.938Z,0.10
2019-01-11T21:01:37.935Z,0.00
2019-01-11T21:04:25.490Z,0.10
2019-01-11T21:07:12.504Z,0.00
2019-01-11T21:09:59.561Z,0.10
2019-01-11T21:12:46.629Z,0.10
2019-01-11T21:15:33.669Z,0.10
2019-01-11T21:18:20.632Z,0.00
2019-01-11T21:21:07.849Z,0.00
2019-01-11T21:23:55.057Z,0.00
2019-01-11T21:26:41.694Z,0.00
2019-01-11T21:29:28.785Z,-0.10
2019-01-11T21:32:16.122Z,0.00
2019-01-11T21:35:03.278Z,-0.10
2019-01-11T21:37:50.328Z,0.00
2019-01-11T21:40:37.430Z,0.00
2019-01-11T21:43:24.634Z,0.00
2019-01-11T21:46:11.814Z,0.00
2019-01-11T21:48:59.172Z,0.00
2019-01-11T21:51:46.413Z,0.00
2019-01-11T21:54:33.148Z,0.10
2019-01-11T21:57:20.219Z,0.10
2019-01-11T22:00:16.217Z,0.10
2019-01-11T22:03:03.934Z,0.00
2019-01-11T22:05:51.042Z,0.00
2019-01-11T22:08:38.091Z,0.00
2019-01-11T22:11:25.355Z,0.00
2019-01-11T22:14:12.441Z,0.00
2019-01-11T22:16:59.652Z,0.10
2019-01-11T22:19:46.895Z,0.10
2019-01-11T22:22:34.265Z,0.10
2019-01-11T22:25:21.293Z,0.10
2019-01-11T22:28:08.573Z,0.20
2019-01-11T22:30:55.745Z,0.20
2019-01-11T22:33:42.654Z,0.20
2019-01-11T22:36:29.897Z,0.20
2019-01-11T22:39:16.850Z,0.30
2019-01-11T22:42:04.223Z,0.20
2019-01-11T22:44:51.302Z,0.20
2019-01-11T22:47:38.662Z,0.20
2019-01-11T22:50:25.778Z,0.30
2019-01-11T22:53:13.082Z,0.40
2019-01-11T22:56:00.369Z,0.40
2019-01-11T22:58:47.653Z,0.40
2019-01-11T23:01:38.011Z,0.40
2019-01-11T23:04:24.915Z,0.50
2019-01-11T23:07:14.977Z,0.30
2019-01-11T23:10:02.673Z,0.40
2019-01-11T23:12:53.310Z,0.20
2019-01-11T23:15:40.311Z,0.30
2019-01-11T23:18:27.076Z,0.20
2019-01-11T23:21:14.068Z,0.30
2019-01-11T23:24:01.164Z,0.30
2019-01-11T23:26:48.376Z,0.30
2019-01-11T23:29:35.562Z,0.30
2019-01-11T23:32:22.726Z,0.20
2019-01-11T23:35:09.805Z,0.30
2019-01-11T23:37:56.612Z,0.40
2019-01-11T23:40:44.007Z,0.40
2019-01-11T23:43:30.729Z,0.30
2019-01-11T23:46:17.741Z,0.30
2019-01-11T23:49:05.179Z,0.30
2019-01-11T23:51:52.130Z,0.40
2019-01-11T23:54:39.389Z,0.50
2019-01-11T23:57:26.663Z,0.30
